Time;durP1;ratioP1;P1;durP2;ratioP2;P2;SDS_P1;SDS_P2;PMS_P1;PMS_P2;Temp;Humidity;BMP_temperature;BMP_pressure;BME280_temperature;BME280_humidity;BME280_pressure;Samples;Min_cycle;Max_cycle;Signal;HPM_P1;HPM_P2
2022/11/01 00:00:32;;;;;;;;;;;21.80;65.80;;;;;;5105783;28;19908;-68
2022/11/01 00:02:59;;;;;;;;;;;21.70;66.20;;;;;;5106597;28;20257;-66
2022/11/01 00:05:26;;;;;;;;;;;21.70;66.30;;;;;;5106065;28;19929;-67
2022/11/01 00:07:53;;;;;;;;;;;21.60;66.80;;;;;;5106633;28;19908;-67
2022/11/01 00:10:19;;;;;;;;;;;21.70;67.30;;;;;;5087671;28;20382;-66
2022/11/01 00:12:47;;;;;;;;;;;21.70;66.50;;;;;;5105726;28;19908;-67
2022/11/01 00:15:14;;;;;;;;;;;21.80;65.10;;;;;;5106278;28;19915;-67
2022/11/01 00:17:40;;;;;;;;;;;21.80;66.90;;;;;;5105687;28;19953;-66
2022/11/01 00:20:07;;;;;;;;;;;21.90;67.30;;;;;;5106075;28;19912;-67
2022/11/01 00:22:34;;;;;;;;;;;21.90;65.00;;;;;;5104862;28;19908;-67
2022/11/01 00:25:00;;;;;;;;;;;21.90;64.60;;;;;;5106273;28;19914;-67
2022/11/01 00:27:27;;;;;;;;;;;21.90;63.50;;;;;;5105320;28;19908;-68
2022/11/01 00:29:54;;;;;;;;;;;22.10;62.60;;;;;;5105566;28;20276;-67
2022/11/01 00:32:20;;;;;;;;;;;22.20;62.70;;;;;;5105734;28;19968;-67
2022/11/01 00:34:47;;;;;;;;;;;22.30;62.40;;;;;;5087127;28;20413;-67
2022/11/01 00:37:13;;;;;;;;;;;22.30;63.80;;;;;;5105866;28;19912;-67
2022/11/01 00:39:40;;;;;;;;;;;22.40;62.70;;;;;;5104937;28;19953;-68
2022/11/01 00:42:07;;;;;;;;;;;22.50;63.90;;;;;;5105539;28;19908;-67
2022/11/01 00:44:33;;;;;;;;;;;22.60;63.00;;;;;;5105212;28;19961;-66
2022/11/01 00:47:00;;;;;;;;;;;22.70;61.60;;;;;;5105567;28;20435;-67
2022/11/01 00:49:26;;;;;;;;;;;22.80;61.90;;;;;;5104983;28;19919;-67
2022/11/01 00:51:53;;;;;;;;;;;22.90;62.30;;;;;;5104912;28;19912;-66
2022/11/01 00:54:20;;;;;;;;;;;23.00;61.50;;;;;;5105628;28;19908;-69
2022/11/01 00:56:46;;;;;;;;;;;23.10;62.00;;;;;;5104704;28;19908;-66
2022/11/01 00:59:13;;;;;;;;;;;23.00;61.20;;;;;;5105500;28;20364;-66
2022/11/01 01:01:39;;;;;;;;;;;23.10;61.40;;;;;;5104436;28;19915;-66
2022/11/01 01:04:06;;;;;;;;;;;22.90;60.40;;;;;;5104731;28;19998;-70
2022/11/01 01:06:33;;;;;;;;;;;22.80;59.30;;;;;;5104745;28;19915;-69
2022/11/01 01:09:00;;;;;;;;;;;22.80;59.80;;;;;;5104848;28;20006;-67
2022/11/01 01:11:27;;;;;;;;;;;22.60;59.40;;;;;;5104696;28;19908;-70
2022/11/01 01:13:54;;;;;;;;;;;22.80;60.00;;;;;;5104855;28;19908;-68
2022/11/01 01:16:20;;;;;;;;;;;22.70;60.10;;;;;;5105017;28;20328;-69
2022/11/01 01:18:47;;;;;;;;;;;22.70;60.20;;;;;;5104127;28;19916;-68
2022/11/01 01:21:15;;;;;;;;;;;23.00;59.50;;;;;;5104676;28;19912;-68
2022/11/01 01:23:42;;;;;;;;;;;23.20;60.60;;;;;;5103937;28;20048;-69
2022/11/01 01:26:09;;;;;;;;;;;23.40;59.80;;;;;;5105286;28;19934;-69
2022/11/01 01:28:36;;;;;;;;;;;23.50;58.90;;;;;;5104690;28;19954;-66
2022/11/01 01:31:07;;;;;;;;;;;23.60;59.70;;;;;;5104675;28;19923;-68
2022/11/01 01:33:34;;;;;;;;;;;23.50;60.30;;;;;;5104413;28;19977;-66
2022/11/01 01:36:01;;;;;;;;;;;23.80;60.30;;;;;;5103720;28;20191;-67
2022/11/01 01:38:28;;;;;;;;;;;24.10;60.20;;;;;;5104173;28;19958;-67
2022/11/01 01:41:54;;;;;;;;;;;24.20;59.40;;;;;;5085859;28;20041;-67
2022/11/01 01:43:43;;;;;;;;;;;24.20;58.30;;;;;;5104017;28;19945;-69
2022/11/01 01:46:09;;;;;;;;;;;24.20;59.40;;;;;;5104288;28;19915;-68
2022/11/01 01:48:36;;;;;;;;;;;24.30;59.30;;;;;;5104454;28;19908;-68
2022/11/01 01:51:04;;;;;;;;;;;24.30;58.00;;;;;;5103609;28;19919;-69
2022/11/01 01:53:36;;;;;;;;;;;24.40;58.10;;;;;;5104379;28;19957;-68
2022/11/01 01:56:05;;;;;;;;;;;24.30;58.30;;;;;;5103430;28;20381;-67
2022/11/01 01:58:34;;;;;;;;;;;24.40;57.60;;;;;;5104332;28;20321;-67
2022/11/01 02:01:01;;;;;;;;;;;24.40;58.30;;;;;;5104093;28;20424;-67
2022/11/01 02:03:30;;;;;;;;;;;24.50;57.70;;;;;;5104497;28;20006;-66
2022/11/01 02:05:59;;;;;;;;;;;24.70;57.00;;;;;;5103722;28;20008;-68
2022/11/01 02:08:26;;;;;;;;;;;24.70;57.80;;;;;;5104175;28;19908;-66
2022/11/01 02:10:54;;;;;;;;;;;24.70;55.70;;;;;;5103193;28;19931;-66
2022/11/01 02:13:24;;;;;;;;;;;24.70;57.20;;;;;;5103174;28;20215;-66
2022/11/01 02:16:03;;;;;;;;;;;25.00;58.50;;;;;;5102388;28;19908;-66
2022/11/01 02:18:36;;;;;;;;;;;25.20;57.20;;;;;;5104045;28;19915;-67
2022/11/01 02:21:12;;;;;;;;;;;25.20;57.50;;;;;;5103122;28;19908;-67
2022/11/01 02:23:48;;;;;;;;;;;25.10;57.10;;;;;;5103207;28;19994;-67
2022/11/01 02:26:24;;;;;;;;;;;25.10;54.60;;;;;;5103732;28;19919;-67
2022/11/01 02:29:09;;;;;;;;;;;25.00;54.90;;;;;;5103404;28;19911;-67
2022/11/01 02:31:55;;;;;;;;;;;25.10;55.80;;;;;;5103180;28;19911;-67
2022/11/01 02:34:41;;;;;;;;;;;25.40;56.50;;;;;;5103226;28;20011;-67
2022/11/01 02:37:26;;;;;;;;;;;25.80;56.20;;;;;;5102721;28;19908;-66
2022/11/01 02:39:57;;;;;;;;;;;26.20;55.30;;;;;;5102851;28;19908;-67
2022/11/01 02:42:35;;;;;;;;;;;26.50;55.00;;;;;;5103335;28;19911;-67
2022/11/01 02:45:30;;;;;;;;;;;26.60;56.90;;;;;;5102965;28;20041;-67
2022/11/01 02:47:58;;;;;;;;;;;27.00;56.50;;;;;;5089076;28;19943;-68
2022/11/01 02:50:27;;;;;;;;;;;27.80;53.90;;;;;;5103009;28;19969;-68
2022/11/01 02:52:54;;;;;;;;;;;27.80;54.00;;;;;;5103091;28;19930;-67
2022/11/01 02:55:34;;;;;;;;;;;28.10;54.50;;;;;;5102810;28;19935;-68
2022/11/01 02:58:03;;;;;;;;;;;28.90;53.00;;;;;;5102854;28;19919;-67
2022/11/01 03:00:31;;;;;;;;;;;29.20;52.50;;;;;;5102848;28;19908;-68
2022/11/01 03:03:24;;;;;;;;;;;29.40;51.80;;;;;;5102498;28;19911;-68
2022/11/01 03:06:00;;;;;;;;;;;30.00;50.80;;;;;;5100149;28;20256;-66
2022/11/01 03:08:28;;;;;;;;;;;29.50;50.10;;;;;;5102629;28;19912;-67
2022/11/01 03:11:01;;;;;;;;;;;29.60;50.00;;;;;;5102461;28;19970;-67
2022/11/01 03:13:37;;;;;;;;;;;29.70;50.60;;;;;;5103174;28;20315;-66
2022/11/01 03:16:07;;;;;;;;;;;29.90;50.90;;;;;;5084073;28;19908;-67
2022/11/01 03:18:40;;;;;;;;;;;30.00;51.00;;;;;;5102562;28;19907;-67
2022/11/01 03:21:17;;;;;;;;;;;30.10;49.10;;;;;;5103125;28;19934;-66
2022/11/01 03:23:50;;;;;;;;;;;29.80;48.60;;;;;;5103223;28;19908;-67
2022/11/01 03:26:19;;;;;;;;;;;30.00;49.00;;;;;;5102230;28;19907;-67
2022/11/01 03:28:48;;;;;;;;;;;30.60;48.20;;;;;;5105543;28;20413;-68
2022/11/01 03:31:22;;;;;;;;;;;30.80;47.60;;;;;;5106951;28;19908;-67
2022/11/01 03:33:53;;;;;;;;;;;31.40;46.90;;;;;;5106799;28;19908;-66
2022/11/01 03:36:21;;;;;;;;;;;31.20;47.00;;;;;;5106154;28;19912;-67
2022/11/01 03:38:53;;;;;;;;;;;32.20;45.90;;;;;;5106619;28;19907;-68
2022/11/01 03:41:21;;;;;;;;;;;31.80;46.10;;;;;;5106328;28;20368;-66
2022/11/01 03:43:48;;;;;;;;;;;32.20;46.00;;;;;;5106609;28;19931;-66
2022/11/01 03:46:15;;;;;;;;;;;32.70;45.70;;;;;;5106067;28;19907;-67
2022/11/01 03:48:41;;;;;;;;;;;32.70;45.50;;;;;;5105545;28;19961;-66
2022/11/01 03:51:08;;;;;;;;;;;32.80;45.70;;;;;;5105556;28;19915;-68
2022/11/01 03:53:35;;;;;;;;;;;32.60;45.30;;;;;;5106254;28;20457;-67
2022/11/01 03:56:01;;;;;;;;;;;33.10;45.20;;;;;;5106216;28;20000;-66
2022/11/01 03:58:40;;;;;;;;;;;33.10;45.60;;;;;;5100876;28;19916;-68
2022/11/01 04:01:08;;;;;;;;;;;33.20;45.50;;;;;;5092556;28;19995;-67
2022/11/01 04:03:35;;;;;;;;;;;32.90;45.00;;;;;;5103255;28;19927;-68
2022/11/01 04:06:02;;;;;;;;;;;31.50;46.50;;;;;;5105871;28;19912;-67
2022/11/01 04:08:28;;;;;;;;;;;30.20;48.10;;;;;;5105861;28;19999;-67
2022/11/01 04:10:55;;;;;;;;;;;29.40;48.90;;;;;;5104943;28;19916;-67
2022/11/01 04:13:21;;;;;;;;;;;28.90;50.90;;;;;;5106298;28;19912;-68
2022/11/01 04:21:19;;;;;;;;;;;32.10;46.00;;;;;;5097911;28;19915;-68
2022/11/01 04:23:46;;;;;;;;;;;33.20;45.20;;;;;;5105369;28;19957;-68
2022/11/01 04:26:17;;;;;;;;;;;33.70;45.10;;;;;;5097302;28;19912;-69
2022/11/01 04:28:55;;;;;;;;;;;34.20;44.60;;;;;;5103996;28;19915;-68
2022/11/01 04:31:32;;;;;;;;;;;33.80;43.40;;;;;;5091684;28;20023;-68
2022/11/01 04:33:59;;;;;;;;;;;33.40;43.70;;;;;;5084686;28;19908;-68
2022/11/01 04:36:26;;;;;;;;;;;32.50;43.70;;;;;;5084104;28;20747;-68
2022/11/01 04:38:54;;;;;;;;;;;31.10;46.50;;;;;;5102489;28;19918;-67
2022/11/01 04:41:22;;;;;;;;;;;29.80;47.10;;;;;;5091561;28;19908;-67
2022/11/01 04:43:49;;;;;;;;;;;28.50;49.10;;;;;;5086243;28;20407;-67
2022/11/01 04:46:15;;;;;;;;;;;27.50;49.60;;;;;;5090782;28;19912;-66
2022/11/01 04:48:42;;;;;;;;;;;26.50;51.30;;;;;;5091273;28;19916;-66
2022/11/01 04:51:09;;;;;;;;;;;25.90;51.50;;;;;;5081250;28;19916;-67
2022/11/01 04:53:36;;;;;;;;;;;25.40;52.30;;;;;;5104048;28;19912;-67
2022/11/01 04:56:03;;;;;;;;;;;24.90;53.20;;;;;;5104418;28;20006;-70
2022/11/01 04:58:30;;;;;;;;;;;24.50;53.20;;;;;;5102740;28;19914;-67
2022/11/01 05:00:57;;;;;;;;;;;24.10;53.70;;;;;;5091675;28;19907;-69
2022/11/01 05:03:23;;;;;;;;;;;23.90;54.20;;;;;;5104693;28;20011;-68
2022/11/01 05:05:50;;;;;;;;;;;23.80;54.20;;;;;;5104345;28;19908;-68
2022/11/01 05:08:17;;;;;;;;;;;23.40;55.20;;;;;;5103229;28;19911;-67
2022/11/01 05:10:44;;;;;;;;;;;23.30;56.20;;;;;;5083862;28;19916;-68
2022/11/01 05:13:11;;;;;;;;;;;23.20;56.90;;;;;;5087934;28;19920;-67
2022/11/01 05:15:38;;;;;;;;;;;23.00;57.40;;;;;;5086025;28;20633;-68
2022/11/01 05:18:05;;;;;;;;;;;23.00;58.80;;;;;;5083682;28;19995;-68
2022/11/01 05:20:31;;;;;;;;;;;23.10;59.90;;;;;;5084115;28;19944;-69
2022/11/01 05:22:59;;;;;;;;;;;23.40;61.00;;;;;;5090699;28;19916;-67
2022/11/01 05:25:26;;;;;;;;;;;24.00;59.10;;;;;;5093867;28;20627;-66
2022/11/01 05:27:58;;;;;;;;;;;24.30;57.50;;;;;;5089774;27;21597;-67
2022/11/01 05:30:24;;;;;;;;;;;24.10;57.30;;;;;;5067082;28;19962;-69
2022/11/01 05:32:55;;;;;;;;;;;23.50;57.80;;;;;;5089378;28;19916;-69
2022/11/01 05:35:21;;;;;;;;;;;22.90;59.80;;;;;;5096728;28;19912;-69
2022/11/01 05:37:48;;;;;;;;;;;22.60;61.20;;;;;;5096197;28;19989;-68
2022/11/01 05:40:14;;;;;;;;;;;23.00;62.90;;;;;;5086518;28;20417;-69
2022/11/01 05:42:41;;;;;;;;;;;24.10;60.30;;;;;;5095765;28;19911;-69
2022/11/01 05:45:09;;;;;;;;;;;25.90;58.60;;;;;;5102643;28;19908;-68
2022/11/01 05:47:39;;;;;;;;;;;27.20;54.80;;;;;;5100371;28;19912;-68
2022/11/01 05:50:08;;;;;;;;;;;28.30;53.60;;;;;;5099026;28;19927;-69
2022/11/01 05:52:35;;;;;;;;;;;29.50;52.90;;;;;;5097911;28;19915;-69
2022/11/01 05:55:02;;;;;;;;;;;30.60;50.70;;;;;;5088892;28;20310;-67
2022/11/01 05:57:29;;;;;;;;;;;31.00;50.90;;;;;;5101327;28;19911;-67
2022/11/01 05:59:55;;;;;;;;;;;30.70;50.90;;;;;;5088597;28;19977;-69
2022/11/01 06:02:22;;;;;;;;;;;29.40;52.20;;;;;;5089296;28;19965;-66
2022/11/01 06:04:49;;;;;;;;;;;28.00;54.20;;;;;;5100752;28;20018;-69
2022/11/01 06:07:15;;;;;;;;;;;26.80;56.50;;;;;;5100807;28;19908;-69
2022/11/01 06:09:42;;;;;;;;;;;25.60;56.70;;;;;;5091092;28;19931;-70
2022/11/01 06:12:09;;;;;;;;;;;24.60;58.40;;;;;;5086168;28;19916;-71
2022/11/01 06:14:35;;;;;;;;;;;23.60;59.70;;;;;;5096058;28;19961;-68
2022/11/01 06:17:02;;;;;;;;;;;23.00;61.40;;;;;;5101996;28;19912;-69
2022/11/01 06:19:28;;;;;;;;;;;22.70;61.90;;;;;;5091612;28;19985;-68
2022/11/01 06:21:55;;;;;;;;;;;22.30;62.90;;;;;;5090835;28;20316;-68
2022/11/01 06:24:22;;;;;;;;;;;22.50;64.80;;;;;;5095023;28;19928;-68
2022/11/01 06:26:48;;;;;;;;;;;23.00;62.50;;;;;;5100944;28;20204;-67
2022/11/01 06:29:16;;;;;;;;;;;23.10;61.80;;;;;;5100667;28;19923;-69
2022/11/01 06:31:43;;;;;;;;;;;22.80;62.20;;;;;;5099890;28;19916;-68
2022/11/01 06:34:10;;;;;;;;;;;22.60;63.00;;;;;;5099070;28;19923;-69
2022/11/01 06:36:36;;;;;;;;;;;22.40;63.80;;;;;;5102025;28;19918;-67
2022/11/01 06:39:03;;;;;;;;;;;22.30;65.20;;;;;;5096033;28;19912;-68
2022/11/01 06:41:30;;;;;;;;;;;22.30;64.00;;;;;;5081169;28;19912;-68
2022/11/01 06:43:56;;;;;;;;;;;22.40;63.60;;;;;;5099348;27;19927;-68
2022/11/01 06:46:23;;;;;;;;;;;22.70;63.70;;;;;;5085063;28;19912;-68
2022/11/01 06:48:49;;;;;;;;;;;22.90;62.70;;;;;;5098381;28;19912;-68
2022/11/01 06:51:16;;;;;;;;;;;23.10;62.60;;;;;;5081641;28;19966;-68
2022/11/01 06:53:43;;;;;;;;;;;23.10;61.60;;;;;;5081844;28;19963;-69
2022/11/01 06:56:09;;;;;;;;;;;22.90;61.70;;;;;;5082084;28;19956;-67
2022/11/01 06:58:36;;;;;;;;;;;22.60;61.80;;;;;;5081451;28;19908;-69
2022/11/01 07:01:02;;;;;;;;;;;22.30;63.00;;;;;;5081629;28;19908;-69
2022/11/01 07:03:29;;;;;;;;;;;22.10;62.30;;;;;;5078875;28;19924;-69
2022/11/01 07:05:58;;;;;;;;;;;22.00;64.00;;;;;;5079959;28;19991;-68
2022/11/01 07:08:25;;;;;;;;;;;21.80;64.10;;;;;;5079388;28;19954;-68
2022/11/01 07:10:52;;;;;;;;;;;21.60;63.90;;;;;;5079552;28;19978;-69
2022/11/01 07:13:18;;;;;;;;;;;21.50;64.10;;;;;;5080837;28;19908;-68
2022/11/01 07:15:45;;;;;;;;;;;21.50;64.10;;;;;;5081252;28;19908;-67
2022/11/01 07:18:12;;;;;;;;;;;21.50;63.90;;;;;;5083708;28;19917;-67
2022/11/01 07:20:41;;;;;;;;;;;21.40;64.10;;;;;;5081221;28;19913;-67
2022/11/01 07:23:14;;;;;;;;;;;21.30;64.20;;;;;;5081660;28;20360;-67
2022/11/01 07:25:41;;;;;;;;;;;21.10;63.60;;;;;;5085520;28;19947;-67
2022/11/01 07:28:08;;;;;;;;;;;21.00;64.60;;;;;;5094132;28;19924;-67
2022/11/01 07:30:35;;;;;;;;;;;21.00;64.20;;;;;;5085801;28;19919;-67
2022/11/01 07:33:03;;;;;;;;;;;21.00;65.20;;;;;;5102192;28;19911;-67
2022/11/01 07:35:30;;;;;;;;;;;20.90;65.00;;;;;;5087983;28;19941;-68
2022/11/01 07:38:00;;;;;;;;;;;20.80;65.30;;;;;;5095847;28;19916;-68
2022/11/01 07:40:27;;;;;;;;;;;20.70;65.10;;;;;;5085792;28;19920;-69
2022/11/01 07:42:58;;;;;;;;;;;20.70;65.30;;;;;;5099418;28;19908;-69
2022/11/01 07:45:26;;;;;;;;;;;20.50;65.40;;;;;;5084752;28;20326;-68
2022/11/01 07:47:57;;;;;;;;;;;20.40;66.10;;;;;;5095506;28;19912;-69
2022/11/01 07:50:23;;;;;;;;;;;20.40;66.20;;;;;;5084440;28;19931;-69
2022/11/01 07:53:10;;;;;;;;;;;20.40;66.10;;;;;;5081157;28;19908;-67
2022/11/01 07:55:37;;;;;;;;;;;20.40;66.80;;;;;;5092109;28;19991;-66
2022/11/01 07:58:04;;;;;;;;;;;20.30;67.10;;;;;;5101330;28;19908;-67
2022/11/01 08:00:31;;;;;;;;;;;20.30;68.30;;;;;;5082408;28;20402;-68
2022/11/01 08:03:01;;;;;;;;;;;20.10;69.30;;;;;;5081344;28;19920;-68
2022/11/01 08:05:28;;;;;;;;;;;20.00;71.00;;;;;;5082117;28;19920;-68
2022/11/01 08:07:55;;;;;;;;;;;19.70;69.10;;;;;;5081712;28;20260;-69
2022/11/01 08:10:21;;;;;;;;;;;19.50;71.20;;;;;;5080772;28;19970;-68
2022/11/01 08:12:48;;;;;;;;;;;19.30;73.10;;;;;;5080608;28;20455;-69
2022/11/01 08:15:15;;;;;;;;;;;19.10;72.40;;;;;;5091105;28;19989;-69
2022/11/01 08:17:41;;;;;;;;;;;19.00;74.30;;;;;;5104623;28;19908;-69
2022/11/01 08:20:08;;;;;;;;;;;18.80;70.40;;;;;;5095876;28;19915;-66
2022/11/01 08:22:38;;;;;;;;;;;18.70;71.10;;;;;;5067660;28;19946;-69
2022/11/01 08:25:05;;;;;;;;;;;18.60;71.00;;;;;;5092499;28;19912;-66
2022/11/01 08:27:32;;;;;;;;;;;18.50;72.10;;;;;;5103513;28;19916;-68
2022/11/01 08:29:58;;;;;;;;;;;18.40;72.70;;;;;;5092154;28;19973;-68
2022/11/01 08:32:25;;;;;;;;;;;18.30;73.50;;;;;;5087188;28;20276;-67
2022/11/01 08:34:51;;;;;;;;;;;18.20;74.90;;;;;;5103132;28;19911;-67
2022/11/01 08:37:18;;;;;;;;;;;18.10;75.10;;;;;;5104596;28;19919;-67
2022/11/01 08:39:45;;;;;;;;;;;18.00;74.90;;;;;;5092840;28;19915;-68
2022/11/01 08:42:11;;;;;;;;;;;17.90;75.30;;;;;;5084366;28;20460;-67
2022/11/01 08:44:38;;;;;;;;;;;17.90;75.00;;;;;;5085914;28;19919;-67
2022/11/01 08:47:05;;;;;;;;;;;17.80;75.00;;;;;;5104047;28;19908;-68
2022/11/01 08:49:32;;;;;;;;;;;17.80;75.00;;;;;;5101787;28;20010;-68
2022/11/01 08:51:58;;;;;;;;;;;17.80;74.40;;;;;;5098429;28;19930;-66
2022/11/01 08:54:25;;;;;;;;;;;17.80;74.10;;;;;;5103824;28;20376;-68
2022/11/01 08:56:52;;;;;;;;;;;17.70;73.40;;;;;;5103875;28;20382;-64
2022/11/01 08:59:19;;;;;;;;;;;17.70;73.30;;;;;;5096275;28;19935;-67
2022/11/01 09:01:45;;;;;;;;;;;17.70;73.20;;;;;;5098942;28;19912;-65
2022/11/01 09:04:12;;;;;;;;;;;17.70;73.40;;;;;;5093934;28;19938;-66
2022/11/01 09:06:39;;;;;;;;;;;17.60;74.50;;;;;;5100677;28;19918;-66
2022/11/01 09:09:06;;;;;;;;;;;17.60;74.20;;;;;;5083836;28;19916;-66
2022/11/01 09:11:32;;;;;;;;;;;17.60;74.60;;;;;;5094161;28;20368;-67
2022/11/01 09:14:00;;;;;;;;;;;17.50;75.20;;;;;;5085171;28;19912;-65
2022/11/01 09:16:26;;;;;;;;;;;17.50;75.30;;;;;;5083713;28;20437;-67
2022/11/01 09:18:53;;;;;;;;;;;17.30;75.90;;;;;;5097156;28;19938;-67
2022/11/01 09:21:20;;;;;;;;;;;17.30;76.10;;;;;;5083758;28;19909;-66
2022/11/01 09:23:46;;;;;;;;;;;17.30;76.80;;;;;;5085208;28;20007;-67
2022/11/01 09:26:13;;;;;;;;;;;17.30;76.70;;;;;;5068123;28;19993;-68
2022/11/01 09:28:40;;;;;;;;;;;17.20;77.10;;;;;;5099306;28;19981;-66
2022/11/01 09:31:09;;;;;;;;;;;17.20;77.30;;;;;;5094171;28;19920;-67
2022/11/01 09:33:36;;;;;;;;;;;17.10;77.30;;;;;;5093169;28;20287;-66
2022/11/01 09:36:03;;;;;;;;;;;17.10;77.20;;;;;;5101374;28;19918;-66
2022/11/01 09:38:32;;;;;;;;;;;17.10;77.10;;;;;;5103954;28;20347;-68
2022/11/01 09:41:04;;;;;;;;;;;17.20;77.00;;;;;;5103273;28;19908;-68
2022/11/01 09:43:33;;;;;;;;;;;17.20;76.60;;;;;;5099679;28;19920;-66
2022/11/01 09:46:01;;;;;;;;;;;17.20;76.60;;;;;;5079127;28;20100;-67
2022/11/01 09:48:29;;;;;;;;;;;17.20;76.30;;;;;;5099832;28;19915;-67
2022/11/01 09:50:55;;;;;;;;;;;17.20;76.50;;;;;;5102577;28;19923;-69
2022/11/01 09:53:26;;;;;;;;;;;17.10;76.60;;;;;;5095523;28;19923;-67
2022/11/01 09:56:08;;;;;;;;;;;17.10;76.90;;;;;;5082422;28;19958;-68
2022/11/01 09:58:35;;;;;;;;;;;17.10;77.20;;;;;;5082307;28;19908;-67
2022/11/01 10:01:22;;;;;;;;;;;17.10;77.40;;;;;;5095960;28;19907;-68
2022/11/01 10:04:19;;;;;;;;;;;17.00;77.50;;;;;;5100236;28;19920;-69
2022/11/01 10:06:48;;;;;;;;;;;16.90;77.80;;;;;;5089730;28;19912;-68
2022/11/01 10:09:20;;;;;;;;;;;16.90;77.80;;;;;;5103342;28;19912;-67
2022/11/01 10:11:47;;;;;;;;;;;16.90;78.10;;;;;;5103316;28;20006;-68
2022/11/01 10:14:29;;;;;;;;;;;16.80;78.10;;;;;;5085260;28;20015;-67
2022/11/01 10:16:58;;;;;;;;;;;16.80;78.80;;;;;;5082579;28;20011;-67
2022/11/01 10:19:29;;;;;;;;;;;16.80;78.40;;;;;;5093012;28;20425;-67
2022/11/01 10:22:00;;;;;;;;;;;16.80;78.50;;;;;;5102463;28;20266;-66
2022/11/01 10:24:34;;;;;;;;;;;16.70;78.70;;;;;;5082816;28;19912;-67
2022/11/01 10:27:12;;;;;;;;;;;16.70;79.10;;;;;;5082414;28;19955;-66
2022/11/01 10:30:02;;;;;;;;;;;16.70;79.30;;;;;;5082989;28;20365;-68
2022/11/01 10:32:34;;;;;;;;;;;16.60;79.80;;;;;;5079391;28;20152;-67
2022/11/01 10:35:04;;;;;;;;;;;16.50;80.10;;;;;;5102682;28;19915;-66
2022/11/01 10:37:44;;;;;;;;;;;16.50;80.60;;;;;;5102576;28;20386;-67
2022/11/01 10:40:12;;;;;;;;;;;16.50;80.90;;;;;;5102305;28;19921;-68
2022/11/01 10:42:39;;;;;;;;;;;16.50;80.70;;;;;;5097133;28;20003;-68
2022/11/01 10:45:07;;;;;;;;;;;16.50;80.90;;;;;;5082181;28;20421;-68
2022/11/01 10:47:34;;;;;;;;;;;16.50;80.90;;;;;;5083368;28;20007;-68
2022/11/01 10:50:01;;;;;;;;;;;16.50;80.80;;;;;;5078616;28;19961;-68
2022/11/01 10:52:29;;;;;;;;;;;16.50;80.70;;;;;;5099279;28;19955;-68
2022/11/01 10:54:56;;;;;;;;;;;16.50;80.60;;;;;;5082252;28;20280;-69
2022/11/01 10:57:29;;;;;;;;;;;16.40;81.30;;;;;;5082238;28;20421;-69
2022/11/01 10:59:57;;;;;;;;;;;16.50;80.90;;;;;;5081735;28;19908;-70
2022/11/01 11:02:32;;;;;;;;;;;16.50;81.00;;;;;;5085123;28;19949;-68
2022/11/01 11:04:59;;;;;;;;;;;16.50;80.90;;;;;;5102139;28;19920;-70
2022/11/01 11:07:29;;;;;;;;;;;16.50;80.70;;;;;;5102796;28;20248;-69
2022/11/01 11:09:55;;;;;;;;;;;16.50;80.70;;;;;;5102129;28;19916;-65
2022/11/01 11:12:23;;;;;;;;;;;16.40;79.80;;;;;;5099306;28;19977;-67
2022/11/01 11:14:56;;;;;;;;;;;16.40;79.20;;;;;;5087368;28;19915;-67
2022/11/01 11:17:29;;;;;;;;;;;16.30;78.70;;;;;;5101895;28;20106;-67
2022/11/01 11:19:59;;;;;;;;;;;16.30;75.70;;;;;;5102674;28;19908;-69
2022/11/01 11:22:26;;;;;;;;;;;16.20;74.80;;;;;;5099665;28;20620;-67
2022/11/01 11:24:57;;;;;;;;;;;16.20;74.90;;;;;;5082031;28;19912;-69
2022/11/01 11:27:26;;;;;;;;;;;16.10;74.70;;;;;;5081777;28;19912;-67
2022/11/01 11:29:57;;;;;;;;;;;16.10;74.60;;;;;;5081648;28;20299;-67
2022/11/01 11:32:29;;;;;;;;;;;16.10;74.60;;;;;;5082845;28;19908;-67
2022/11/01 11:35:01;;;;;;;;;;;16.00;74.60;;;;;;5081765;28;20006;-67
2022/11/01 11:37:31;;;;;;;;;;;16.00;73.80;;;;;;5081992;28;19912;-66
2022/11/01 11:40:10;;;;;;;;;;;15.90;74.00;;;;;;5082145;28;19908;-68
2022/11/01 11:42:36;;;;;;;;;;;15.90;73.40;;;;;;5082033;28;20279;-67
2022/11/01 11:45:17;;;;;;;;;;;15.80;73.90;;;;;;5081473;28;19954;-67
2022/11/01 11:47:46;;;;;;;;;;;15.80;73.80;;;;;;5082456;28;20280;-67
2022/11/01 11:50:23;;;;;;;;;;;15.80;74.30;;;;;;5085211;28;19938;-67
2022/11/01 11:52:55;;;;;;;;;;;15.70;74.50;;;;;;5085993;28;19916;-68
2022/11/01 11:55:26;;;;;;;;;;;15.70;74.90;;;;;;5085315;28;20324;-67
2022/11/01 11:57:54;;;;;;;;;;;15.60;74.50;;;;;;5085632;28;19908;-67
2022/11/01 12:00:22;;;;;;;;;;;15.50;74.60;;;;;;5085780;28;19957;-68
2022/11/01 12:02:49;;;;;;;;;;;15.50;74.90;;;;;;5085821;28;19908;-68
2022/11/01 12:05:17;;;;;;;;;;;15.50;74.50;;;;;;5085817;28;20658;-68
2022/11/01 12:07:44;;;;;;;;;;;15.40;74.50;;;;;;5085777;28;19983;-68
2022/11/01 12:10:28;;;;;;;;;;;15.30;74.40;;;;;;5084941;28;19916;-68
2022/11/01 12:12:58;;;;;;;;;;;15.30;74.50;;;;;;5085493;28;19986;-68
2022/11/01 12:15:26;;;;;;;;;;;15.20;74.30;;;;;;5085146;28;20283;-68
2022/11/01 12:17:53;;;;;;;;;;;15.20;74.60;;;;;;5085546;28;20006;-67
2022/11/01 12:20:21;;;;;;;;;;;15.20;75.00;;;;;;5085309;28;19912;-67
2022/11/01 12:23:00;;;;;;;;;;;15.30;74.70;;;;;;5085876;28;19916;-67
2022/11/01 12:25:27;;;;;;;;;;;15.20;75.00;;;;;;5084644;28;19954;-67
2022/11/01 12:27:59;;;;;;;;;;;15.10;75.20;;;;;;5085355;28;19943;-68
2022/11/01 12:30:27;;;;;;;;;;;15.10;75.10;;;;;;5084980;28;19927;-67
2022/11/01 12:32:58;;;;;;;;;;;15.10;75.30;;;;;;5084771;28;19919;-66
2022/11/01 12:35:30;;;;;;;;;;;15.10;75.20;;;;;;5085214;28;20318;-68
2022/11/01 12:37:56;;;;;;;;;;;15.10;75.40;;;;;;5085302;28;19916;-68
2022/11/01 12:40:29;;;;;;;;;;;15.00;75.90;;;;;;5084770;28;19908;-69
2022/11/01 12:43:15;;;;;;;;;;;15.00;75.50;;;;;;5084834;28;19991;-66
2022/11/01 12:45:51;;;;;;;;;;;14.90;75.70;;;;;;5073763;28;19908;-67
2022/11/01 12:48:27;;;;;;;;;;;14.90;76.00;;;;;;5084384;28;20007;-67
2022/11/01 12:51:08;;;;;;;;;;;14.90;76.20;;;;;;5085059;28;19916;-67
2022/11/01 12:53:38;;;;;;;;;;;14.90;76.30;;;;;;5084039;28;20264;-67
2022/11/01 12:56:05;;;;;;;;;;;14.90;76.00;;;;;;5084000;28;19912;-67
2022/11/01 12:58:31;;;;;;;;;;;14.80;76.30;;;;;;5084325;28;19908;-68
2022/11/01 13:01:16;;;;;;;;;;;14.80;76.60;;;;;;5083650;28;19965;-70
2022/11/01 13:03:43;;;;;;;;;;;14.90;76.80;;;;;;5084337;28;20334;-69
2022/11/01 13:06:10;;;;;;;;;;;14.90;76.80;;;;;;5084197;28;19955;-68
2022/11/01 13:08:54;;;;;;;;;;;14.80;76.70;;;;;;5083774;28;19908;-68
2022/11/01 13:11:34;;;;;;;;;;;14.80;77.00;;;;;;5083767;28;19970;-68
2022/11/01 13:14:16;;;;;;;;;;;14.80;77.20;;;;;;5084646;28;19912;-69
2022/11/01 13:16:46;;;;;;;;;;;14.80;77.20;;;;;;5084247;28;19915;-68
2022/11/01 13:19:21;;;;;;;;;;;14.90;76.80;;;;;;5084482;28;19912;-66
2022/11/01 13:21:52;;;;;;;;;;;14.80;76.90;;;;;;5084578;28;19941;-67
2022/11/01 13:24:18;;;;;;;;;;;14.80;77.20;;;;;;5084285;28;19912;-66
2022/11/01 13:26:51;;;;;;;;;;;14.80;76.90;;;;;;5083959;28;19916;-68
2022/11/01 13:29:36;;;;;;;;;;;14.90;77.10;;;;;;5083675;28;20322;-69
2022/11/01 13:32:08;;;;;;;;;;;14.80;76.90;;;;;;5084089;28;19966;-67
2022/11/01 13:34:41;;;;;;;;;;;14.90;77.40;;;;;;5084813;28;20022;-66
2022/11/01 13:37:26;;;;;;;;;;;14.90;77.10;;;;;;5083955;28;19909;-68
2022/11/01 13:40:01;;;;;;;;;;;14.80;77.10;;;;;;5084258;28;20356;-68
2022/11/01 13:42:33;;;;;;;;;;;14.80;77.40;;;;;;5083275;28;19915;-65
2022/11/01 13:45:06;;;;;;;;;;;14.70;77.50;;;;;;5083876;28;19978;-66
2022/11/01 13:47:47;;;;;;;;;;;14.70;77.60;;;;;;5083357;28;19923;-66
2022/11/01 13:50:32;;;;;;;;;;;14.70;77.60;;;;;;5083489;28;19929;-65
2022/11/01 13:53:11;;;;;;;;;;;14.70;77.50;;;;;;5083430;28;19965;-67
2022/11/01 13:55:46;;;;;;;;;;;14.60;77.80;;;;;;5083193;28;19915;-67
2022/11/01 13:58:17;;;;;;;;;;;14.50;78.00;;;;;;5083101;28;19995;-67
2022/11/01 14:00:47;;;;;;;;;;;14.50;78.50;;;;;;5090282;28;20445;-68
2022/11/01 14:03:20;;;;;;;;;;;14.50;78.40;;;;;;5103356;28;20320;-67
2022/11/01 14:06:10;;;;;;;;;;;14.50;78.40;;;;;;5103683;28;19908;-68
2022/11/01 14:08:39;;;;;;;;;;;14.40;77.80;;;;;;5103518;28;19908;-67
2022/11/01 14:11:07;;;;;;;;;;;14.40;77.80;;;;;;5103548;28;19920;-68
2022/11/01 14:13:38;;;;;;;;;;;14.40;77.80;;;;;;5101992;28;19953;-68
2022/11/01 14:16:13;;;;;;;;;;;14.30;78.00;;;;;;5103511;28;19976;-67
2022/11/01 14:18:58;;;;;;;;;;;14.30;78.30;;;;;;5103407;28;19961;-66
2022/11/01 14:21:30;;;;;;;;;;;14.20;78.00;;;;;;5103368;28;19995;-68
2022/11/01 14:24:05;;;;;;;;;;;14.20;78.40;;;;;;5103452;28;20006;-67
2022/11/01 14:26:44;;;;;;;;;;;14.10;77.60;;;;;;5102123;28;20330;-68
2022/11/01 14:29:11;;;;;;;;;;;14.20;77.90;;;;;;5103554;28;20278;-69
2022/11/01 14:31:38;;;;;;;;;;;14.10;77.70;;;;;;5102556;28;19923;-68
2022/11/01 14:34:06;;;;;;;;;;;14.10;77.70;;;;;;5103074;28;19962;-68
2022/11/01 14:36:35;;;;;;;;;;;14.00;77.70;;;;;;5103140;28;19962;-68